Wray, Georgia
Current Conditions -  °F | °C
As of 7:15 AM on Tuesday 27 Jan 2015 (Local Time) from KFZG Reporting Station
Clear Clear  
Wind Chill: 38°   Ceiling: Unl
Heat Index: 38°   Visibility: 10mi
Dew Point: 33°   Wind: 3mph
Humidity: 80%   Direction: 290°WNW
Pressure: 29.96"   Gusts: NA
Location:  31.62°N, 83.05°W
Report Text: KFZG 271215Z AUTO 29003KT 10SM CLR 04/00 A2996 RMK AO2 T00350004
Loading
Personal Weather Stations






























Interactive Weather Map New forecast layout! Learn more

10-Day Weather Forecast

Advertisements
Track Severe Weather on mobile